createdAt,value
2022-07-31T00:03:12.677Z,98027.72
2022-07-31T00:08:15.187Z,98024.56
2022-07-31T00:13:17.027Z,98023.34
2022-07-31T00:18:18.844Z,98027.56
2022-07-31T00:23:20.686Z,98022.97
2022-07-31T00:28:22.479Z,98019.25
2022-07-31T00:33:24.418Z,98026.78
2022-07-31T00:38:27.278Z,98021.81
2022-07-31T00:43:30.778Z,98016.34
2022-07-31T00:48:33.957Z,98016.13
2022-07-31T00:53:36.317Z,98011.34
2022-07-31T00:58:38.137Z,98008.88
2022-07-31T01:03:40.208Z,98006.88
2022-07-31T01:08:42.055Z,98013.28
2022-07-31T01:13:58.031Z,98008.63
2022-07-31T01:19:05.118Z,98006.81
2022-07-31T01:24:44.571Z,98007.81
2022-07-31T01:30:01.304Z,98006.22
2022-07-31T01:35:25.880Z,98009.03
2022-07-31T01:40:37.570Z,98006.56
2022-07-31T01:45:43.777Z,98009.75
2022-07-31T01:50:49.751Z,98006.72
2022-07-31T01:56:01.818Z,98009.84
2022-07-31T02:01:13.996Z,97997.16
2022-07-31T02:06:19.090Z,97995.47
2022-07-31T02:11:22.130Z,97994.22
2022-07-31T02:16:26.543Z,97986.28
2022-07-31T02:21:37.960Z,97978.69
2022-07-31T02:26:41.106Z,97981.88
2022-07-31T02:31:44.830Z,97981.69
2022-07-31T02:36:47.454Z,97985.94
2022-07-31T02:41:50.062Z,97984.22
2022-07-31T02:46:52.260Z,97974.78
2022-07-31T02:51:55.797Z,97968.63
2022-07-31T02:56:58.762Z,97965.75
2022-07-31T03:02:00.790Z,97963.69
2022-07-31T03:07:04.980Z,97963.22
2022-07-31T03:12:07.793Z,97967.09
2022-07-31T03:17:10.737Z,97956.84
2022-07-31T03:22:15.436Z,97958.47
2022-07-31T03:27:17.672Z,97954.03
2022-07-31T03:32:19.659Z,97958.50
2022-07-31T03:37:22.038Z,97955.88
2022-07-31T03:42:25.020Z,97954.38
2022-07-31T03:47:26.949Z,97965.78
2022-07-31T03:52:29.712Z,97966.06
2022-07-31T03:57:34.205Z,97964.84
2022-07-31T04:02:36.758Z,97963.75
2022-07-31T04:07:44.496Z,97967.28
2022-07-31T04:12:46.374Z,97970.34
2022-07-31T04:17:48.817Z,97978.16
2022-07-31T04:22:55.684Z,97977.81
2022-07-31T04:28:23.386Z,97976.66
2022-07-31T04:33:25.826Z,97976.38
2022-07-31T04:38:28.005Z,97976.44
2022-07-31T04:43:31.155Z,97979.16
2022-07-31T04:48:33.086Z,97981.06
2022-07-31T04:53:35.019Z,97972.72
2022-07-31T04:58:40.707Z,97977.63
2022-07-31T05:03:42.543Z,97981.72
2022-07-31T05:08:44.545Z,97988.50
2022-07-31T05:13:46.415Z,97985.56
2022-07-31T05:18:48.699Z,97990.66
2022-07-31T05:24:16.876Z,97992.53
2022-07-31T05:29:38.563Z,97993.78
2022-07-31T05:34:41.129Z,97995.44
2022-07-31T05:39:44.831Z,97997.50
2022-07-31T05:45:05.393Z,97995.13
2022-07-31T05:50:08.512Z,97988.53
2022-07-31T05:55:10.485Z,97995.38
2022-07-31T06:00:30.469Z,97995.56
2022-07-31T06:05:35.092Z,97998.59
2022-07-31T06:10:37.690Z,97997.53
2022-07-31T06:15:49.056Z,97993.28
2022-07-31T06:20:51.468Z,97997.13
2022-07-31T06:25:53.398Z,98003.31
2022-07-31T06:30:55.632Z,98013.75
2022-07-31T06:35:57.560Z,98024.34
2022-07-31T06:41:36.759Z,98027.69
2022-07-31T06:46:57.176Z,98030.34
2022-07-31T06:52:37.886Z,98036.66
2022-07-31T06:57:40.556Z,98024.06
2022-07-31T07:02:43.250Z,98023.59
2022-07-31T07:07:45.257Z,98030.59
2022-07-31T07:12:47.324Z,98029.22
2022-07-31T07:17:50.101Z,98027.38
2022-07-31T07:22:57.039Z,98031.38
2022-07-31T07:28:15.232Z,98017.06
2022-07-31T07:33:41.604Z,98013.34
2022-07-31T07:38:56.192Z,98011.28
2022-07-31T07:43:58.842Z,98005.88
2022-07-31T07:49:03.583Z,97998.00
2022-07-31T07:54:15.325Z,97992.72
2022-07-31T07:59:36.055Z,97992.59
2022-07-31T08:04:57.879Z,97990.41
2022-07-31T08:10:00.560Z,97987.03
2022-07-31T08:15:09.934Z,97974.88
2022-07-31T08:20:38.466Z,97985.84
2022-07-31T08:25:40.870Z,97980.22
2022-07-31T08:30:43.186Z,97981.59
2022-07-31T08:35:49.618Z,97976.56
2022-07-31T08:40:53.374Z,97978.13
2022-07-31T08:45:55.871Z,97982.50
2022-07-31T08:51:05.508Z,97975.13
2022-07-31T08:56:38.008Z,97964.75
2022-07-31T09:01:39.990Z,97960.97
2022-07-31T09:06:42.004Z,97959.38
2022-07-31T09:11:48.669Z,97946.50
2022-07-31T09:17:34.712Z,97947.72
2022-07-31T09:22:36.719Z,97937.28
2022-07-31T09:27:40.319Z,97937.50
2022-07-31T09:32:43.368Z,97942.56
2022-07-31T09:37:50.979Z,97944.44
2022-07-31T09:43:19.999Z,97950.38
2022-07-31T09:48:26.666Z,97942.03
2022-07-31T09:53:50.304Z,97950.53
2022-07-31T09:59:18.435Z,97951.78
2022-07-31T10:04:22.720Z,97946.28
2022-07-31T10:09:27.439Z,97939.31
2022-07-31T10:14:45.092Z,97928.03
2022-07-31T10:19:51.099Z,97937.63
2022-07-31T10:25:25.901Z,97937.91
2022-07-31T10:30:28.990Z,97922.13
2022-07-31T10:35:41.395Z,97920.06
2022-07-31T10:41:05.972Z,97920.88
2022-07-31T10:46:07.891Z,97920.59
2022-07-31T10:51:32.596Z,97923.69
2022-07-31T10:57:00.455Z,97915.03
2022-07-31T11:02:13.980Z,97911.88
2022-07-31T11:07:37.807Z,97911.81
2022-07-31T11:12:40.268Z,97893.06
2022-07-31T11:18:21.193Z,97904.72
2022-07-31T11:23:08.623Z,97896.31
2022-07-31T11:28:10.575Z,97907.44
2022-07-31T11:33:13.182Z,97900.59
2022-07-31T11:38:15.099Z,97886.19
2022-07-31T11:43:26.193Z,97878.66
2022-07-31T11:48:37.410Z,97886.06
2022-07-31T11:53:42.011Z,97863.19
2022-07-31T11:58:52.023Z,97870.00
2022-07-31T12:03:54.460Z,97869.81
2022-07-31T12:08:56.701Z,97868.44
2022-07-31T12:13:59.561Z,97847.22
2022-07-31T12:19:01.356Z,97853.66
2022-07-31T12:24:11.015Z,97844.72
2022-07-31T12:29:13.253Z,97838.41
2022-07-31T12:34:38.348Z,97840.63
2022-07-31T12:39:59.303Z,97835.91
2022-07-31T12:45:18.026Z,97841.72
2022-07-31T12:50:23.092Z,97837.81
2022-07-31T12:55:25.021Z,97836.38
2022-07-31T13:00:28.057Z,97822.31
2022-07-31T13:05:29.892Z,97815.59
2022-07-31T13:10:32.297Z,97817.63
2022-07-31T13:15:34.563Z,97822.28
2022-07-31T13:20:36.375Z,97795.09
2022-07-31T13:25:38.257Z,97791.13
2022-07-31T13:30:40.106Z,97787.56
2022-07-31T13:35:42.113Z,97787.84
2022-07-31T13:41:02.306Z,97781.00
2022-07-31T13:46:04.550Z,97781.44
2022-07-31T13:51:06.398Z,97768.38
2022-07-31T13:56:08.382Z,97770.97
2022-07-31T14:01:10.327Z,97758.53
2022-07-31T14:06:12.333Z,97759.13
2022-07-31T14:11:15.299Z,97739.84
2022-07-31T14:16:17.193Z,97743.94
2022-07-31T14:21:19.026Z,97729.78
2022-07-31T14:26:20.885Z,97719.00
2022-07-31T14:31:22.707Z,97733.66
2022-07-31T14:36:24.569Z,97730.81
2022-07-31T14:41:26.380Z,97718.78
2022-07-31T14:46:28.260Z,97711.72
2022-07-31T14:51:30.081Z,97695.66
2022-07-31T14:56:59.695Z,97715.81
2022-07-31T15:01:54.007Z,97725.78
2022-07-31T15:07:07.610Z,97713.19
2022-07-31T15:12:17.794Z,97713.88
2022-07-31T15:17:19.671Z,97705.13
2022-07-31T15:22:21.511Z,97705.06
2022-07-31T15:27:24.269Z,97702.88
2022-07-31T15:32:25.909Z,97696.50
2022-07-31T15:37:28.519Z,97693.88
2022-07-31T15:42:40.756Z,97687.50
2022-07-31T15:47:43.421Z,97688.16
2022-07-31T15:52:45.108Z,97676.44
2022-07-31T15:57:47.158Z,97676.25
2022-07-31T16:02:50.056Z,97672.16
2022-07-31T16:08:30.981Z,97673.69
2022-07-31T16:13:16.435Z,97671.16
2022-07-31T16:18:18.771Z,97672.03
2022-07-31T16:23:20.644Z,97662.13
2022-07-31T16:28:22.332Z,97651.47
2022-07-31T16:33:23.953Z,97650.72
2022-07-31T16:38:25.651Z,97646.81
2022-07-31T16:43:50.348Z,97640.50
2022-07-31T16:48:49.009Z,97643.53
2022-07-31T16:54:14.500Z,97641.88
2022-07-31T16:59:12.338Z,97638.34
2022-07-31T17:04:14.333Z,97643.03
2022-07-31T17:09:18.564Z,97625.66
2022-07-31T17:14:22.207Z,97639.50
2022-07-31T17:19:41.260Z,97641.97
2022-07-31T17:24:51.141Z,97639.78
2022-07-31T17:29:53.198Z,97643.78
2022-07-31T17:34:54.930Z,97648.91
2022-07-31T17:39:57.827Z,97644.09
2022-07-31T17:45:01.903Z,97651.34
2022-07-31T17:50:04.284Z,97649.00
2022-07-31T17:55:06.934Z,97645.00
2022-07-31T18:00:09.983Z,97649.78
2022-07-31T18:05:11.793Z,97653.69
2022-07-31T18:10:13.541Z,97652.78
2022-07-31T18:15:15.423Z,97664.97
2022-07-31T18:20:21.747Z,97667.56
2022-07-31T18:25:23.443Z,97679.50
2022-07-31T18:30:30.366Z,97672.63
2022-07-31T18:35:34.496Z,97664.06
2022-07-31T18:40:36.280Z,97661.09
2022-07-31T18:45:41.592Z,97665.00
2022-07-31T18:50:59.054Z,97656.31
2022-07-31T18:56:05.151Z,97659.00
2022-07-31T19:01:06.776Z,97670.91
2022-07-31T19:06:08.414Z,97667.16
2022-07-31T19:11:11.693Z,97677.78
2022-07-31T19:16:13.492Z,97681.16
2022-07-31T19:21:19.453Z,97685.59
2022-07-31T19:26:25.674Z,97679.88
2022-07-31T19:31:27.579Z,97687.25
2022-07-31T19:36:29.268Z,97693.97
2022-07-31T19:41:32.721Z,97680.63
2022-07-31T19:46:35.811Z,97684.44
2022-07-31T19:51:37.489Z,97663.06
2022-07-31T19:56:39.123Z,97661.19
2022-07-31T20:01:40.829Z,97674.97
2022-07-31T20:06:42.504Z,97671.78
2022-07-31T20:11:44.375Z,97669.16
2022-07-31T20:16:46.023Z,97669.91
2022-07-31T20:21:47.738Z,97679.09
2022-07-31T20:26:51.647Z,97686.78
2022-07-31T20:31:53.629Z,97692.47
2022-07-31T20:36:55.529Z,97699.69
2022-07-31T20:41:58.619Z,97695.50
2022-07-31T20:47:00.376Z,97685.78
2022-07-31T20:52:02.320Z,97668.03
2022-07-31T20:57:04.180Z,97655.25
2022-07-31T21:02:06.160Z,97652.41
2022-07-31T21:07:07.866Z,97648.50
2022-07-31T21:12:09.676Z,97641.53
2022-07-31T21:17:11.347Z,97641.97
2022-07-31T21:22:13.109Z,97640.03
2022-07-31T21:27:17.777Z,97631.09
2022-07-31T21:32:19.843Z,97640.28
2022-07-31T21:37:23.044Z,97632.72
2022-07-31T21:42:25.124Z,97631.78
2022-07-31T21:47:30.312Z,97636.03
2022-07-31T21:52:52.130Z,97641.06
2022-07-31T21:57:59.069Z,97651.16
2022-07-31T22:03:03.322Z,97652.97
2022-07-31T22:08:05.316Z,97655.81
2022-07-31T22:13:10.420Z,97656.53
2022-07-31T22:18:12.509Z,97655.50
2022-07-31T22:23:14.696Z,97656.38
2022-07-31T22:28:21.842Z,97654.22
2022-07-31T22:33:23.950Z,97653.06
2022-07-31T22:38:27.214Z,97642.16
2022-07-31T22:44:10.289Z,97631.75
2022-07-31T22:48:53.579Z,97645.47
2022-07-31T22:53:55.444Z,97646.94
2022-07-31T22:58:57.290Z,97649.59
2022-07-31T23:03:59.118Z,97640.41
2022-07-31T23:09:01.888Z,97644.31
2022-07-31T23:14:03.997Z,97650.66
2022-07-31T23:19:06.012Z,97639.44
2022-07-31T23:24:08.484Z,97638.53
2022-07-31T23:29:10.321Z,97638.06
2022-07-31T23:34:12.194Z,97635.66
2022-07-31T23:39:14.122Z,97623.88
2022-07-31T23:44:18.671Z,97620.38
2022-07-31T23:49:27.136Z,97618.31
2022-07-31T23:54:29.129Z,97616.41
2022-07-31T23:59:31.067Z,97615.50
